sensor_id;sensor_type;location;lat;lon;timestamp;P1;durP1;ratioP1;P2;durP2;ratioP2
69991;SDS011;57332;51.320;-0.580;2023-06-14T00:00:15;6.90;;;4.10;;
69991;SDS011;57332;51.320;-0.580;2023-06-14T00:02:43;7.95;;;4.00;;
69991;SDS011;57332;51.320;-0.580;2023-06-14T00:05:10;6.10;;;3.63;;
69991;SDS011;57332;51.320;-0.580;2023-06-14T00:07:39;5.90;;;3.75;;
69991;SDS011;57332;51.320;-0.580;2023-06-14T00:10:10;5.55;;;3.70;;
69991;SDS011;57332;51.320;-0.580;2023-06-14T00:12:37;6.45;;;3.70;;
69991;SDS011;57332;51.320;-0.580;2023-06-14T00:15:05;7.47;;;3.65;;
69991;SDS011;57332;51.320;-0.580;2023-06-14T00:17:32;7.13;;;3.50;;
69991;SDS011;57332;51.320;-0.580;2023-06-14T00:19:59;7.35;;;3.75;;
69991;SDS011;57332;51.320;-0.580;2023-06-14T00:22:26;6.78;;;3.17;;
69991;SDS011;57332;51.320;-0.580;2023-06-14T00:24:55;5.65;;;3.50;;
69991;SDS011;57332;51.320;-0.580;2023-06-14T00:27:22;6.95;;;3.58;;
69991;SDS011;57332;51.320;-0.580;2023-06-14T00:29:50;4.60;;;3.05;;
69991;SDS011;57332;51.320;-0.580;2023-06-14T00:32:18;6.22;;;3.60;;
69991;SDS011;57332;51.320;-0.580;2023-06-14T00:34:45;5.40;;;3.30;;
69991;SDS011;57332;51.320;-0.580;2023-06-14T00:37:12;6.18;;;2.90;;
69991;SDS011;57332;51.320;-0.580;2023-06-14T00:39:39;5.72;;;3.00;;
69991;SDS011;57332;51.320;-0.580;2023-06-14T00:42:06;5.63;;;2.95;;
69991;SDS011;57332;51.320;-0.580;2023-06-14T00:44:33;4.68;;;2.90;;
69991;SDS011;57332;51.320;-0.580;2023-06-14T00:47:00;5.10;;;2.88;;
69991;SDS011;57332;51.320;-0.580;2023-06-14T00:49:27;6.15;;;3.00;;
69991;SDS011;57332;51.320;-0.580;2023-06-14T00:51:56;5.28;;;3.08;;
69991;SDS011;57332;51.320;-0.580;2023-06-14T00:54:23;5.63;;;3.00;;
69991;SDS011;57332;51.320;-0.580;2023-06-14T00:56:50;5.85;;;3.15;;
69991;SDS011;57332;51.320;-0.580;2023-06-14T00:59:17;6.35;;;3.25;;
69991;SDS011;57332;51.320;-0.580;2023-06-14T01:01:43;5.03;;;3.10;;
69991;SDS011;57332;51.320;-0.580;2023-06-14T01:04:11;4.57;;;2.67;;
69991;SDS011;57332;51.320;-0.580;2023-06-14T01:06:48;6.03;;;2.85;;
69991;SDS011;57332;51.320;-0.580;2023-06-14T01:12:07;6.88;;;3.10;;
69991;SDS011;57332;51.320;-0.580;2023-06-14T01:14:37;4.28;;;2.58;;
69991;SDS011;57332;51.320;-0.580;2023-06-14T01:17:04;8.98;;;3.08;;
69991;SDS011;57332;51.320;-0.580;2023-06-14T01:19:32;5.53;;;2.80;;
69991;SDS011;57332;51.320;-0.580;2023-06-14T01:22:01;6.20;;;2.90;;
69991;SDS011;57332;51.320;-0.580;2023-06-14T01:24:28;5.63;;;2.70;;
69991;SDS011;57332;51.320;-0.580;2023-06-14T01:26:59;4.68;;;2.40;;
69991;SDS011;57332;51.320;-0.580;2023-06-14T01:29:26;5.60;;;2.60;;
69991;SDS011;57332;51.320;-0.580;2023-06-14T01:31:54;5.53;;;2.75;;
69991;SDS011;57332;51.320;-0.580;2023-06-14T01:34:21;5.85;;;2.63;;
69991;SDS011;57332;51.320;-0.580;2023-06-14T01:36:48;5.38;;;2.50;;
69991;SDS011;57332;51.320;-0.580;2023-06-14T01:39:16;6.78;;;2.40;;
69991;SDS011;57332;51.320;-0.580;2023-06-14T01:41:43;4.65;;;2.50;;
69991;SDS011;57332;51.320;-0.580;2023-06-14T01:44:12;4.75;;;2.50;;
69991;SDS011;57332;51.320;-0.580;2023-06-14T01:46:40;5.28;;;2.60;;
69991;SDS011;57332;51.320;-0.580;2023-06-14T01:49:08;5.30;;;2.63;;
69991;SDS011;57332;51.320;-0.580;2023-06-14T01:51:35;4.78;;;2.40;;
69991;SDS011;57332;51.320;-0.580;2023-06-14T01:54:02;4.40;;;1.95;;
69991;SDS011;57332;51.320;-0.580;2023-06-14T01:56:29;6.20;;;2.30;;
69991;SDS011;57332;51.320;-0.580;2023-06-14T01:58:56;7.45;;;2.20;;
69991;SDS011;57332;51.320;-0.580;2023-06-14T02:01:23;4.53;;;2.20;;
69991;SDS011;57332;51.320;-0.580;2023-06-14T02:03:51;4.68;;;2.15;;
69991;SDS011;57332;51.320;-0.580;2023-06-14T02:06:18;3.92;;;2.05;;
69991;SDS011;57332;51.320;-0.580;2023-06-14T02:08:45;4.45;;;1.95;;
69991;SDS011;57332;51.320;-0.580;2023-06-14T02:11:12;6.20;;;2.17;;
69991;SDS011;57332;51.320;-0.580;2023-06-14T02:13:38;4.57;;;2.40;;
69991;SDS011;57332;51.320;-0.580;2023-06-14T02:16:05;4.68;;;2.15;;
69991;SDS011;57332;51.320;-0.580;2023-06-14T02:18:32;5.80;;;2.05;;
69991;SDS011;57332;51.320;-0.580;2023-06-14T02:20:59;4.88;;;2.20;;
69991;SDS011;57332;51.320;-0.580;2023-06-14T02:23:26;3.17;;;1.75;;
69991;SDS011;57332;51.320;-0.580;2023-06-14T02:25:53;4.53;;;2.40;;
69991;SDS011;57332;51.320;-0.580;2023-06-14T02:28:20;4.10;;;1.83;;
69991;SDS011;57332;51.320;-0.580;2023-06-14T02:30:47;3.67;;;1.80;;
69991;SDS011;57332;51.320;-0.580;2023-06-14T02:33:14;3.90;;;1.92;;
69991;SDS011;57332;51.320;-0.580;2023-06-14T02:35:41;4.50;;;1.70;;
69991;SDS011;57332;51.320;-0.580;2023-06-14T02:38:08;4.25;;;1.92;;
69991;SDS011;57332;51.320;-0.580;2023-06-14T02:40:35;5.18;;;2.20;;
69991;SDS011;57332;51.320;-0.580;2023-06-14T02:43:02;4.95;;;2.25;;
69991;SDS011;57332;51.320;-0.580;2023-06-14T02:45:29;6.35;;;2.00;;
69991;SDS011;57332;51.320;-0.580;2023-06-14T02:47:56;3.47;;;1.90;;
69991;SDS011;57332;51.320;-0.580;2023-06-14T02:50:23;5.90;;;1.98;;
69991;SDS011;57332;51.320;-0.580;2023-06-14T02:52:50;5.22;;;1.80;;
69991;SDS011;57332;51.320;-0.580;2023-06-14T02:55:19;3.97;;;1.90;;
69991;SDS011;57332;51.320;-0.580;2023-06-14T02:57:47;4.90;;;2.13;;
69991;SDS011;57332;51.320;-0.580;2023-06-14T03:00:15;6.57;;;2.08;;
69991;SDS011;57332;51.320;-0.580;2023-06-14T03:02:42;3.13;;;1.90;;
69991;SDS011;57332;51.320;-0.580;2023-06-14T03:05:10;3.20;;;1.88;;
69991;SDS011;57332;51.320;-0.580;2023-06-14T03:07:36;5.05;;;2.17;;
69991;SDS011;57332;51.320;-0.580;2023-06-14T03:10:12;6.07;;;2.42;;
69991;SDS011;57332;51.320;-0.580;2023-06-14T03:12:40;4.30;;;2.10;;
69991;SDS011;57332;51.320;-0.580;2023-06-14T03:15:07;5.65;;;2.28;;
69991;SDS011;57332;51.320;-0.580;2023-06-14T03:17:35;5.18;;;2.25;;
69991;SDS011;57332;51.320;-0.580;2023-06-14T03:20:05;6.07;;;2.05;;
69991;SDS011;57332;51.320;-0.580;2023-06-14T03:22:33;5.47;;;2.08;;
69991;SDS011;57332;51.320;-0.580;2023-06-14T03:25:00;8.35;;;2.42;;
69991;SDS011;57332;51.320;-0.580;2023-06-14T03:27:27;5.82;;;2.28;;
69991;SDS011;57332;51.320;-0.580;2023-06-14T03:29:55;4.38;;;2.28;;
69991;SDS011;57332;51.320;-0.580;2023-06-14T03:32:22;6.50;;;2.50;;
69991;SDS011;57332;51.320;-0.580;2023-06-14T03:34:49;4.65;;;2.30;;
69991;SDS011;57332;51.320;-0.580;2023-06-14T03:37:17;8.35;;;2.70;;
69991;SDS011;57332;51.320;-0.580;2023-06-14T03:39:44;4.50;;;2.45;;
69991;SDS011;57332;51.320;-0.580;2023-06-14T03:42:13;6.28;;;2.33;;
69991;SDS011;57332;51.320;-0.580;2023-06-14T03:44:40;5.28;;;2.53;;
69991;SDS011;57332;51.320;-0.580;2023-06-14T03:47:07;6.32;;;2.40;;
69991;SDS011;57332;51.320;-0.580;2023-06-14T03:49:34;7.65;;;2.83;;
69991;SDS011;57332;51.320;-0.580;2023-06-14T03:52:01;5.88;;;2.60;;
69991;SDS011;57332;51.320;-0.580;2023-06-14T03:54:29;6.32;;;2.63;;
69991;SDS011;57332;51.320;-0.580;2023-06-14T03:57:16;6.47;;;2.60;;
69991;SDS011;57332;51.320;-0.580;2023-06-14T03:59:43;5.80;;;2.50;;
69991;SDS011;57332;51.320;-0.580;2023-06-14T04:02:10;5.28;;;2.53;;
69991;SDS011;57332;51.320;-0.580;2023-06-14T04:04:37;5.35;;;2.50;;
69991;SDS011;57332;51.320;-0.580;2023-06-14T04:07:04;6.15;;;2.50;;
69991;SDS011;57332;51.320;-0.580;2023-06-14T04:09:31;7.45;;;2.90;;
69991;SDS011;57332;51.320;-0.580;2023-06-14T04:11:58;5.28;;;2.80;;
69991;SDS011;57332;51.320;-0.580;2023-06-14T04:14:25;5.30;;;2.50;;
69991;SDS011;57332;51.320;-0.580;2023-06-14T04:16:52;5.57;;;2.90;;
69991;SDS011;57332;51.320;-0.580;2023-06-14T04:19:19;9.60;;;2.72;;
69991;SDS011;57332;51.320;-0.580;2023-06-14T04:21:46;5.38;;;2.30;;
69991;SDS011;57332;51.320;-0.580;2023-06-14T04:24:13;6.97;;;2.95;;
69991;SDS011;57332;51.320;-0.580;2023-06-14T04:26:41;8.00;;;2.67;;
69991;SDS011;57332;51.320;-0.580;2023-06-14T04:29:08;5.80;;;2.53;;
69991;SDS011;57332;51.320;-0.580;2023-06-14T04:31:35;6.30;;;3.10;;
69991;SDS011;57332;51.320;-0.580;2023-06-14T04:34:04;5.30;;;2.53;;
69991;SDS011;57332;51.320;-0.580;2023-06-14T04:36:33;4.22;;;2.30;;
69991;SDS011;57332;51.320;-0.580;2023-06-14T04:39:01;4.68;;;2.42;;
69991;SDS011;57332;51.320;-0.580;2023-06-14T04:41:30;6.10;;;2.40;;
69991;SDS011;57332;51.320;-0.580;2023-06-14T04:43:57;6.97;;;2.92;;
69991;SDS011;57332;51.320;-0.580;2023-06-14T04:46:25;8.38;;;3.13;;
69991;SDS011;57332;51.320;-0.580;2023-06-14T04:48:54;7.25;;;2.55;;
69991;SDS011;57332;51.320;-0.580;2023-06-14T04:51:21;4.13;;;2.30;;
69991;SDS011;57332;51.320;-0.580;2023-06-14T04:53:56;5.28;;;2.60;;
69991;SDS011;57332;51.320;-0.580;2023-06-14T04:56:26;5.43;;;2.50;;
69991;SDS011;57332;51.320;-0.580;2023-06-14T04:58:53;8.10;;;2.72;;
69991;SDS011;57332;51.320;-0.580;2023-06-14T05:01:20;4.78;;;2.40;;
69991;SDS011;57332;51.320;-0.580;2023-06-14T05:03:50;5.95;;;2.60;;
69991;SDS011;57332;51.320;-0.580;2023-06-14T05:06:17;6.47;;;2.83;;
69991;SDS011;57332;51.320;-0.580;2023-06-14T05:08:44;5.97;;;2.50;;
69991;SDS011;57332;51.320;-0.580;2023-06-14T05:11:11;6.93;;;2.58;;
69991;SDS011;57332;51.320;-0.580;2023-06-14T05:13:38;5.20;;;2.65;;
69991;SDS011;57332;51.320;-0.580;2023-06-14T05:16:06;5.20;;;2.40;;
69991;SDS011;57332;51.320;-0.580;2023-06-14T05:18:33;6.95;;;2.70;;
69991;SDS011;57332;51.320;-0.580;2023-06-14T05:21:01;5.60;;;2.92;;
69991;SDS011;57332;51.320;-0.580;2023-06-14T05:23:29;5.93;;;2.78;;
69991;SDS011;57332;51.320;-0.580;2023-06-14T05:25:56;7.45;;;2.90;;
69991;SDS011;57332;51.320;-0.580;2023-06-14T05:28:23;7.05;;;3.03;;
69991;SDS011;57332;51.320;-0.580;2023-06-14T05:30:51;6.07;;;2.88;;
69991;SDS011;57332;51.320;-0.580;2023-06-14T05:33:18;10.13;;;2.80;;
69991;SDS011;57332;51.320;-0.580;2023-06-14T05:35:45;7.85;;;2.40;;
69991;SDS011;57332;51.320;-0.580;2023-06-14T05:38:12;7.22;;;2.78;;
69991;SDS011;57332;51.320;-0.580;2023-06-14T05:40:39;6.25;;;2.47;;
69991;SDS011;57332;51.320;-0.580;2023-06-14T05:43:06;5.50;;;2.67;;
69991;SDS011;57332;51.320;-0.580;2023-06-14T05:45:33;6.80;;;2.78;;
69991;SDS011;57332;51.320;-0.580;2023-06-14T05:47:59;6.25;;;2.92;;
69991;SDS011;57332;51.320;-0.580;2023-06-14T05:50:26;7.90;;;2.95;;
69991;SDS011;57332;51.320;-0.580;2023-06-14T05:52:53;7.45;;;3.42;;
69991;SDS011;57332;51.320;-0.580;2023-06-14T05:55:20;6.47;;;2.92;;
69991;SDS011;57332;51.320;-0.580;2023-06-14T05:57:48;7.72;;;3.10;;
69991;SDS011;57332;51.320;-0.580;2023-06-14T06:00:15;8.63;;;2.92;;
69991;SDS011;57332;51.320;-0.580;2023-06-14T06:02:43;8.70;;;2.97;;
69991;SDS011;57332;51.320;-0.580;2023-06-14T06:05:11;7.28;;;3.30;;
69991;SDS011;57332;51.320;-0.580;2023-06-14T06:07:38;5.47;;;3.00;;
69991;SDS011;57332;51.320;-0.580;2023-06-14T06:10:06;8.45;;;3.20;;
69991;SDS011;57332;51.320;-0.580;2023-06-14T06:12:34;9.63;;;2.67;;
69991;SDS011;57332;51.320;-0.580;2023-06-14T06:15:00;7.30;;;3.10;;
69991;SDS011;57332;51.320;-0.580;2023-06-14T06:17:27;8.35;;;3.00;;
69991;SDS011;57332;51.320;-0.580;2023-06-14T06:20:12;10.30;;;3.50;;
69991;SDS011;57332;51.320;-0.580;2023-06-14T06:22:39;7.25;;;3.00;;
69991;SDS011;57332;51.320;-0.580;2023-06-14T06:25:06;9.32;;;3.42;;
69991;SDS011;57332;51.320;-0.580;2023-06-14T06:27:33;7.45;;;3.10;;
69991;SDS011;57332;51.320;-0.580;2023-06-14T06:30:00;6.93;;;3.25;;
69991;SDS011;57332;51.320;-0.580;2023-06-14T06:32:27;5.70;;;2.80;;
69991;SDS011;57332;51.320;-0.580;2023-06-14T06:34:54;7.10;;;3.35;;
69991;SDS011;57332;51.320;-0.580;2023-06-14T06:37:21;6.13;;;3.10;;
69991;SDS011;57332;51.320;-0.580;2023-06-14T06:39:48;9.45;;;3.40;;
69991;SDS011;57332;51.320;-0.580;2023-06-14T06:42:15;9.57;;;3.60;;
69991;SDS011;57332;51.320;-0.580;2023-06-14T06:44:42;9.52;;;2.88;;
69991;SDS011;57332;51.320;-0.580;2023-06-14T06:47:09;8.48;;;3.53;;
69991;SDS011;57332;51.320;-0.580;2023-06-14T06:49:38;5.78;;;3.13;;
69991;SDS011;57332;51.320;-0.580;2023-06-14T06:52:06;10.95;;;4.00;;
69991;SDS011;57332;51.320;-0.580;2023-06-14T06:54:33;6.10;;;2.70;;
69991;SDS011;57332;51.320;-0.580;2023-06-14T06:57:00;6.60;;;3.00;;
69991;SDS011;57332;51.320;-0.580;2023-06-14T06:59:28;9.43;;;3.38;;
69991;SDS011;57332;51.320;-0.580;2023-06-14T07:01:55;7.45;;;3.20;;
69991;SDS011;57332;51.320;-0.580;2023-06-14T07:04:22;5.32;;;3.10;;
69991;SDS011;57332;51.320;-0.580;2023-06-14T07:06:49;7.35;;;2.90;;
69991;SDS011;57332;51.320;-0.580;2023-06-14T07:09:16;9.90;;;3.50;;
69991;SDS011;57332;51.320;-0.580;2023-06-14T07:11:43;7.05;;;3.50;;
69991;SDS011;57332;51.320;-0.580;2023-06-14T07:14:10;11.52;;;3.33;;
69991;SDS011;57332;51.320;-0.580;2023-06-14T07:16:37;6.18;;;3.10;;
69991;SDS011;57332;51.320;-0.580;2023-06-14T07:19:04;7.55;;;3.25;;
69991;SDS011;57332;51.320;-0.580;2023-06-14T07:21:31;7.20;;;3.20;;
69991;SDS011;57332;51.320;-0.580;2023-06-14T07:23:58;9.32;;;3.28;;
69991;SDS011;57332;51.320;-0.580;2023-06-14T07:26:25;9.48;;;3.85;;
69991;SDS011;57332;51.320;-0.580;2023-06-14T07:28:53;7.97;;;3.60;;
69991;SDS011;57332;51.320;-0.580;2023-06-14T07:31:19;8.43;;;4.28;;
69991;SDS011;57332;51.320;-0.580;2023-06-14T07:33:46;8.13;;;3.30;;
69991;SDS011;57332;51.320;-0.580;2023-06-14T07:36:14;9.40;;;3.50;;
69991;SDS011;57332;51.320;-0.580;2023-06-14T07:38:40;9.48;;;3.20;;
69991;SDS011;57332;51.320;-0.580;2023-06-14T07:41:07;6.70;;;3.53;;
69991;SDS011;57332;51.320;-0.580;2023-06-14T07:43:34;11.00;;;3.45;;
69991;SDS011;57332;51.320;-0.580;2023-06-14T07:46:01;8.88;;;3.70;;
69991;SDS011;57332;51.320;-0.580;2023-06-14T07:48:34;9.32;;;3.58;;
69991;SDS011;57332;51.320;-0.580;2023-06-14T07:51:01;10.27;;;3.15;;
69991;SDS011;57332;51.320;-0.580;2023-06-14T07:53:28;6.82;;;3.45;;
69991;SDS011;57332;51.320;-0.580;2023-06-14T07:55:55;12.43;;;3.88;;
69991;SDS011;57332;51.320;-0.580;2023-06-14T07:58:22;8.02;;;3.15;;
69991;SDS011;57332;51.320;-0.580;2023-06-14T08:00:49;10.10;;;3.85;;
69991;SDS011;57332;51.320;-0.580;2023-06-14T08:03:16;7.00;;;3.33;;
69991;SDS011;57332;51.320;-0.580;2023-06-14T08:05:43;10.32;;;3.55;;
69991;SDS011;57332;51.320;-0.580;2023-06-14T08:08:10;9.55;;;3.88;;
69991;SDS011;57332;51.320;-0.580;2023-06-14T08:10:37;8.10;;;3.45;;
69991;SDS011;57332;51.320;-0.580;2023-06-14T08:13:04;10.57;;;3.60;;
69991;SDS011;57332;51.320;-0.580;2023-06-14T08:15:31;7.57;;;3.45;;
69991;SDS011;57332;51.320;-0.580;2023-06-14T08:17:58;7.88;;;3.35;;
69991;SDS011;57332;51.320;-0.580;2023-06-14T08:20:27;7.90;;;3.40;;
69991;SDS011;57332;51.320;-0.580;2023-06-14T08:22:54;9.73;;;3.17;;
69991;SDS011;57332;51.320;-0.580;2023-06-14T08:25:23;8.48;;;3.92;;
69991;SDS011;57332;51.320;-0.580;2023-06-14T08:27:50;9.38;;;3.70;;
69991;SDS011;57332;51.320;-0.580;2023-06-14T08:30:17;8.02;;;3.42;;
69991;SDS011;57332;51.320;-0.580;2023-06-14T08:32:44;7.38;;;3.67;;
69991;SDS011;57332;51.320;-0.580;2023-06-14T08:35:11;7.22;;;3.03;;
69991;SDS011;57332;51.320;-0.580;2023-06-14T08:37:39;9.55;;;3.25;;
69991;SDS011;57332;51.320;-0.580;2023-06-14T08:40:23;7.07;;;3.13;;
69991;SDS011;57332;51.320;-0.580;2023-06-14T08:42:51;6.97;;;3.38;;
69991;SDS011;57332;51.320;-0.580;2023-06-14T08:45:19;12.27;;;4.15;;
69991;SDS011;57332;51.320;-0.580;2023-06-14T08:47:51;8.48;;;3.88;;
69991;SDS011;57332;51.320;-0.580;2023-06-14T08:50:19;12.13;;;3.60;;
69991;SDS011;57332;51.320;-0.580;2023-06-14T08:52:58;9.00;;;4.13;;
69991;SDS011;57332;51.320;-0.580;2023-06-14T08:55:29;8.15;;;3.50;;
69991;SDS011;57332;51.320;-0.580;2023-06-14T08:58:00;7.85;;;3.42;;
69991;SDS011;57332;51.320;-0.580;2023-06-14T09:00:27;9.65;;;3.97;;
69991;SDS011;57332;51.320;-0.580;2023-06-14T09:02:55;9.90;;;3.95;;
69991;SDS011;57332;51.320;-0.580;2023-06-14T09:05:25;12.13;;;3.80;;
69991;SDS011;57332;51.320;-0.580;2023-06-14T09:07:53;8.23;;;3.55;;
69991;SDS011;57332;51.320;-0.580;2023-06-14T09:10:23;10.25;;;3.63;;
69991;SDS011;57332;51.320;-0.580;2023-06-14T09:12:53;9.52;;;4.15;;
69991;SDS011;57332;51.320;-0.580;2023-06-14T09:15:20;11.32;;;3.90;;
69991;SDS011;57332;51.320;-0.580;2023-06-14T09:17:47;8.23;;;3.88;;
69991;SDS011;57332;51.320;-0.580;2023-06-14T09:20:14;10.43;;;3.45;;
69991;SDS011;57332;51.320;-0.580;2023-06-14T09:22:50;8.85;;;3.63;;
69991;SDS011;57332;51.320;-0.580;2023-06-14T09:25:17;10.10;;;3.60;;
69991;SDS011;57332;51.320;-0.580;2023-06-14T09:28:06;7.80;;;4.00;;
69991;SDS011;57332;51.320;-0.580;2023-06-14T09:30:33;8.57;;;3.65;;
69991;SDS011;57332;51.320;-0.580;2023-06-14T09:33:00;6.93;;;3.60;;
69991;SDS011;57332;51.320;-0.580;2023-06-14T09:35:28;8.15;;;3.75;;
69991;SDS011;57332;51.320;-0.580;2023-06-14T09:37:57;6.40;;;3.88;;
69991;SDS011;57332;51.320;-0.580;2023-06-14T09:40:25;9.95;;;4.03;;
69991;SDS011;57332;51.320;-0.580;2023-06-14T09:42:52;10.88;;;3.63;;
69991;SDS011;57332;51.320;-0.580;2023-06-14T09:45:19;7.82;;;3.22;;
69991;SDS011;57332;51.320;-0.580;2023-06-14T09:47:51;11.45;;;4.22;;
69991;SDS011;57332;51.320;-0.580;2023-06-14T09:50:33;12.52;;;3.97;;
69991;SDS011;57332;51.320;-0.580;2023-06-14T09:53:02;9.60;;;4.18;;
69991;SDS011;57332;51.320;-0.580;2023-06-14T09:55:30;8.18;;;4.05;;
69991;SDS011;57332;51.320;-0.580;2023-06-14T09:57:57;8.75;;;4.07;;
69991;SDS011;57332;51.320;-0.580;2023-06-14T10:00:25;9.27;;;4.25;;
69991;SDS011;57332;51.320;-0.580;2023-06-14T10:02:54;7.20;;;4.00;;
69991;SDS011;57332;51.320;-0.580;2023-06-14T10:05:21;12.05;;;4.30;;
69991;SDS011;57332;51.320;-0.580;2023-06-14T10:07:52;9.63;;;4.15;;
69991;SDS011;57332;51.320;-0.580;2023-06-14T10:10:19;6.32;;;3.67;;
69991;SDS011;57332;51.320;-0.580;2023-06-14T10:12:46;8.40;;;3.60;;
69991;SDS011;57332;51.320;-0.580;2023-06-14T10:15:26;10.05;;;4.32;;
69991;SDS011;57332;51.320;-0.580;2023-06-14T10:17:57;9.38;;;4.35;;
69991;SDS011;57332;51.320;-0.580;2023-06-14T10:23:13;9.35;;;4.20;;
69991;SDS011;57332;51.320;-0.580;2023-06-14T10:25:43;7.65;;;4.55;;
69991;SDS011;57332;51.320;-0.580;2023-06-14T10:28:16;8.75;;;4.50;;
69991;SDS011;57332;51.320;-0.580;2023-06-14T10:31:02;10.52;;;4.90;;
69991;SDS011;57332;51.320;-0.580;2023-06-14T10:33:31;7.38;;;4.40;;
69991;SDS011;57332;51.320;-0.580;2023-06-14T10:36:23;9.20;;;4.30;;
69991;SDS011;57332;51.320;-0.580;2023-06-14T10:39:05;10.80;;;4.68;;
69991;SDS011;57332;51.320;-0.580;2023-06-14T10:41:36;6.45;;;4.18;;
69991;SDS011;57332;51.320;-0.580;2023-06-14T10:46:30;9.63;;;4.35;;
69991;SDS011;57332;51.320;-0.580;2023-06-14T10:48:57;6.75;;;4.30;;
69991;SDS011;57332;51.320;-0.580;2023-06-14T10:51:29;8.45;;;4.18;;
69991;SDS011;57332;51.320;-0.580;2023-06-14T10:53:58;8.98;;;4.32;;
69991;SDS011;57332;51.320;-0.580;2023-06-14T10:56:29;9.18;;;4.47;;
69991;SDS011;57332;51.320;-0.580;2023-06-14T10:58:57;10.32;;;4.43;;
69991;SDS011;57332;51.320;-0.580;2023-06-14T11:01:36;6.60;;;4.40;;
69991;SDS011;57332;51.320;-0.580;2023-06-14T11:04:07;7.68;;;4.32;;
69991;SDS011;57332;51.320;-0.580;2023-06-14T11:06:47;7.68;;;4.50;;
69991;SDS011;57332;51.320;-0.580;2023-06-14T11:11:42;7.53;;;4.47;;
69991;SDS011;57332;51.320;-0.580;2023-06-14T11:14:10;7.88;;;4.70;;
69991;SDS011;57332;51.320;-0.580;2023-06-14T11:16:37;8.82;;;4.75;;
69991;SDS011;57332;51.320;-0.580;2023-06-14T11:19:04;9.38;;;4.72;;
69991;SDS011;57332;51.320;-0.580;2023-06-14T11:21:32;8.95;;;4.65;;
69991;SDS011;57332;51.320;-0.580;2023-06-14T11:24:00;9.30;;;4.55;;
69991;SDS011;57332;51.320;-0.580;2023-06-14T11:26:31;8.07;;;4.63;;
69991;SDS011;57332;51.320;-0.580;2023-06-14T11:28:59;9.43;;;5.10;;
69991;SDS011;57332;51.320;-0.580;2023-06-14T11:31:27;9.95;;;4.60;;
69991;SDS011;57332;51.320;-0.580;2023-06-14T11:33:55;9.48;;;4.75;;
69991;SDS011;57332;51.320;-0.580;2023-06-14T11:36:25;7.03;;;4.93;;
69991;SDS011;57332;51.320;-0.580;2023-06-14T11:39:03;7.30;;;5.10;;
69991;SDS011;57332;51.320;-0.580;2023-06-14T11:42:04;7.90;;;4.75;;
69991;SDS011;57332;51.320;-0.580;2023-06-14T11:44:27;8.45;;;5.15;;
69991;SDS011;57332;51.320;-0.580;2023-06-14T11:46:55;9.32;;;5.35;;
69991;SDS011;57332;51.320;-0.580;2023-06-14T11:49:23;8.75;;;4.70;;
69991;SDS011;57332;51.320;-0.580;2023-06-14T11:51:51;11.18;;;5.15;;
69991;SDS011;57332;51.320;-0.580;2023-06-14T11:54:19;8.40;;;5.03;;
69991;SDS011;57332;51.320;-0.580;2023-06-14T11:56:46;9.20;;;5.18;;
69991;SDS011;57332;51.320;-0.580;2023-06-14T11:59:14;8.75;;;4.95;;
69991;SDS011;57332;51.320;-0.580;2023-06-14T12:01:42;6.85;;;5.30;;
69991;SDS011;57332;51.320;-0.580;2023-06-14T12:04:09;8.52;;;5.28;;
69991;SDS011;57332;51.320;-0.580;2023-06-14T12:06:36;9.35;;;5.25;;
69991;SDS011;57332;51.320;-0.580;2023-06-14T12:09:07;11.77;;;5.57;;
69991;SDS011;57332;51.320;-0.580;2023-06-14T12:11:40;9.70;;;5.00;;
69991;SDS011;57332;51.320;-0.580;2023-06-14T12:14:08;6.03;;;4.78;;
69991;SDS011;57332;51.320;-0.580;2023-06-14T12:16:36;6.75;;;4.95;;
69991;SDS011;57332;51.320;-0.580;2023-06-14T12:19:08;6.75;;;4.93;;
69991;SDS011;57332;51.320;-0.580;2023-06-14T12:21:37;7.90;;;5.07;;
69991;SDS011;57332;51.320;-0.580;2023-06-14T12:24:05;7.80;;;5.22;;
69991;SDS011;57332;51.320;-0.580;2023-06-14T12:26:33;7.05;;;4.80;;
69991;SDS011;57332;51.320;-0.580;2023-06-14T12:29:00;6.90;;;4.53;;
69991;SDS011;57332;51.320;-0.580;2023-06-14T12:31:27;7.05;;;5.10;;
69991;SDS011;57332;51.320;-0.580;2023-06-14T12:33:56;8.80;;;5.60;;
69991;SDS011;57332;51.320;-0.580;2023-06-14T12:36:22;10.77;;;5.05;;
69991;SDS011;57332;51.320;-0.580;2023-06-14T12:38:49;7.93;;;5.43;;
69991;SDS011;57332;51.320;-0.580;2023-06-14T12:41:20;7.80;;;5.28;;
69991;SDS011;57332;51.320;-0.580;2023-06-14T12:43:49;7.13;;;5.45;;
69991;SDS011;57332;51.320;-0.580;2023-06-14T12:46:16;7.70;;;5.10;;
69991;SDS011;57332;51.320;-0.580;2023-06-14T12:48:43;6.97;;;5.10;;
69991;SDS011;57332;51.320;-0.580;2023-06-14T12:51:10;8.18;;;5.45;;
69991;SDS011;57332;51.320;-0.580;2023-06-14T12:53:37;7.40;;;5.28;;
69991;SDS011;57332;51.320;-0.580;2023-06-14T12:56:04;8.57;;;5.40;;
69991;SDS011;57332;51.320;-0.580;2023-06-14T12:58:31;7.63;;;5.10;;
69991;SDS011;57332;51.320;-0.580;2023-06-14T13:00:59;9.07;;;5.65;;
69991;SDS011;57332;51.320;-0.580;2023-06-14T13:03:25;6.85;;;5.25;;
69991;SDS011;57332;51.320;-0.580;2023-06-14T13:05:53;7.30;;;5.55;;
69991;SDS011;57332;51.320;-0.580;2023-06-14T13:08:20;8.70;;;5.43;;
69991;SDS011;57332;51.320;-0.580;2023-06-14T13:10:50;8.07;;;5.32;;
69991;SDS011;57332;51.320;-0.580;2023-06-14T13:13:17;9.25;;;5.90;;
69991;SDS011;57332;51.320;-0.580;2023-06-14T13:15:44;8.60;;;5.93;;
69991;SDS011;57332;51.320;-0.580;2023-06-14T13:18:12;9.20;;;5.68;;
69991;SDS011;57332;51.320;-0.580;2023-06-14T13:20:42;9.05;;;5.63;;
69991;SDS011;57332;51.320;-0.580;2023-06-14T13:23:09;9.88;;;6.50;;
69991;SDS011;57332;51.320;-0.580;2023-06-14T13:25:37;9.43;;;5.88;;
69991;SDS011;57332;51.320;-0.580;2023-06-14T13:28:04;8.23;;;5.28;;
69991;SDS011;57332;51.320;-0.580;2023-06-14T13:30:32;7.30;;;5.75;;
69991;SDS011;57332;51.320;-0.580;2023-06-14T13:32:59;9.07;;;5.47;;
69991;SDS011;57332;51.320;-0.580;2023-06-14T13:35:26;7.43;;;5.50;;
69991;SDS011;57332;51.320;-0.580;2023-06-14T13:37:53;7.32;;;5.72;;
69991;SDS011;57332;51.320;-0.580;2023-06-14T13:40:20;8.93;;;5.70;;
69991;SDS011;57332;51.320;-0.580;2023-06-14T13:42:47;7.75;;;5.40;;
69991;SDS011;57332;51.320;-0.580;2023-06-14T13:45:14;8.30;;;5.82;;
69991;SDS011;57332;51.320;-0.580;2023-06-14T13:47:42;8.57;;;5.40;;
69991;SDS011;57332;51.320;-0.580;2023-06-14T13:50:09;7.65;;;5.47;;
69991;SDS011;57332;51.320;-0.580;2023-06-14T13:52:36;9.77;;;5.85;;
69991;SDS011;57332;51.320;-0.580;2023-06-14T13:55:03;8.98;;;5.32;;
69991;SDS011;57332;51.320;-0.580;2023-06-14T13:57:31;8.18;;;5.57;;
69991;SDS011;57332;51.320;-0.580;2023-06-14T13:59:59;8.13;;;5.82;;
69991;SDS011;57332;51.320;-0.580;2023-06-14T14:02:28;8.68;;;5.93;;
69991;SDS011;57332;51.320;-0.580;2023-06-14T14:04:55;8.15;;;5.72;;
69991;SDS011;57332;51.320;-0.580;2023-06-14T14:07:22;7.38;;;5.30;;
69991;SDS011;57332;51.320;-0.580;2023-06-14T14:09:50;7.80;;;5.78;;
69991;SDS011;57332;51.320;-0.580;2023-06-14T14:12:17;8.82;;;5.40;;
69991;SDS011;57332;51.320;-0.580;2023-06-14T14:14:45;9.82;;;6.20;;
69991;SDS011;57332;51.320;-0.580;2023-06-14T14:17:13;8.55;;;5.70;;
69991;SDS011;57332;51.320;-0.580;2023-06-14T14:19:40;9.43;;;5.80;;
69991;SDS011;57332;51.320;-0.580;2023-06-14T14:22:07;7.70;;;5.60;;
69991;SDS011;57332;51.320;-0.580;2023-06-14T14:24:34;8.25;;;5.60;;
69991;SDS011;57332;51.320;-0.580;2023-06-14T14:27:01;9.75;;;5.85;;
69991;SDS011;57332;51.320;-0.580;2023-06-14T14:29:28;10.23;;;6.30;;
69991;SDS011;57332;51.320;-0.580;2023-06-14T14:31:58;7.55;;;5.70;;
69991;SDS011;57332;51.320;-0.580;2023-06-14T14:34:25;9.05;;;5.68;;
69991;SDS011;57332;51.320;-0.580;2023-06-14T14:36:52;8.18;;;5.25;;
69991;SDS011;57332;51.320;-0.580;2023-06-14T14:39:19;7.53;;;5.45;;
69991;SDS011;57332;51.320;-0.580;2023-06-14T14:41:46;7.97;;;5.78;;
69991;SDS011;57332;51.320;-0.580;2023-06-14T14:44:13;8.93;;;5.72;;
69991;SDS011;57332;51.320;-0.580;2023-06-14T14:46:40;8.38;;;5.50;;
69991;SDS011;57332;51.320;-0.580;2023-06-14T14:49:07;11.73;;;5.75;;